• Join FlightAware (Why Join?)
  • Login
  • US Flag 
Rudolph Flight #1: Arrived! 
02:48AM EST


 

Airport Tracker/Info


-or-


 

Live Flight TrackerFlight Track Log ✈ N379B ✈ 09-May-2013 ✈ KGBD - KEAR

Flight Track Log - Related Links

Times and Time Zones

All times are in EDT time to prevent confusion due to time zone crossing. See the N379B flight status page for this flight to view local times or setup timezone preferences in your user account.

Time Position Orientation Groundspeed Altitude Reporting Facility
EDT Latitude Longitude Course Direction KTS MPH feet Rate Location/Type
06:19PM 38.4139 -98.8539 357° North 227 261 5,500  Level Kansas City Center
06:20PM 38.4836 -98.8533 360° North 244 281 9,300 3,540 Climbing Kansas City Center
06:21PM 38.5817 -98.8553 359° North 281 323 12,900 3,120 Climbing Kansas City Center
06:22PM 38.6683 -98.8622 356° North 304 350 15,800 2,760 Climbing Kansas City Center
06:23PM 38.7592 -98.8658 358° North 322 371 18,700 2,520 Climbing Kansas City Center
06:24PM 39.0203 -98.8862 357° North  Level FlightAware Approximate
06:24PM 38.8519 -98.8725 357° North 330 380 21,100  Level Kansas City Center
06:25PM 38.9483 -98.8794 357° North 342 394 22,100 420 Climbing Kansas City Center
06:26PM 39.0519 -98.8861 357° North 367 422 22,000 -60 Descending Kansas City Center
06:27PM 39.1533 -98.8925 357° North 364 419 22,000  Level Kansas City Center
06:28PM 39.3150 -98.9047 357° North 364 419 22,000  Level Kansas City Center
06:29PM 39.4164 -98.9122 357° North 364 419 22,000  Level Kansas City Center
06:30PM 39.4483 -98.9156 355° North 365 420 22,000  Level Minneapolis Center
06:30PM 39.5083 -98.9214 356° North 361 415 22,000  Level Denver Center
06:31PM 39.6086 -98.9342 354° North 361 415 22,000 -300 Level Denver Center
06:32PM 39.7078 -98.9458 355° North 358 412 21,400 -1,260 Descending Denver Center
06:33PM 39.8067 -98.9569 355° North 355 409 19,400 -1,860 Descending Denver Center
06:34PM 39.8994 -98.9669 355° North 338 389 17,600 -2,040 Descending Denver Center
06:36PM 40.0094 -98.9806 355° North 330 380 15,300 -2,040 Descending Denver Center
06:37PM 40.0997 -98.9931 354° North 327 376 13,500 -1,800 Descending Denver Center
06:37PM 40.1336 -98.9972 355° North 325 374 12,700 -1,680 Descending Minneapolis Center
06:38PM 40.1819 -99.0014 356° North 305 351 11,800 -1,440 Descending Denver Center
06:39PM 40.2456 -99.0094 354° North 292 336 10,400 -1,620 Descending Denver Center
06:40PM 40.3394 -99.0219 354° North 284 327 8,500 -1,860 Descending Denver Center
06:40PM 40.3831 -99.0281 354° North 280 322 7,600 -1,620 Descending Minneapolis Center
06:41PM 40.4525 -99.0361 355° North 264 304 6,100 -1,380 Descending Minneapolis Center
06:42PM 40.5181 -99.0444 354° North 250 288 4,800 -720 Descending Minneapolis Center
06:43PM 40.5664 -99.0353 North 204 235 4,700 -420 Descending Minneapolis Center
06:45PM 40.6381 -99.0239 North 170 196 3,700 -540 Descending Denver Center
06:46PM 40.6764 -99.0172 North 153 176 3,300 -420 Descending Denver Center